createdAt,value
2019-04-06T00:00:25.567Z,83.72
2019-04-06T00:02:57.234Z,87.65
2019-04-06T00:05:28.785Z,86.15
2019-04-06T00:08:00.364Z,88.67
2019-04-06T00:10:31.963Z,89.32
2019-04-06T00:13:03.542Z,89.67
2019-04-06T00:15:35.084Z,86.87
2019-04-06T00:18:06.629Z,85.85
2019-04-06T00:20:38.186Z,89.60
2019-04-06T00:23:09.703Z,94.07
2019-04-06T00:25:44.668Z,87.02
2019-04-06T00:28:14.462Z,86.37
2019-04-06T00:30:54.914Z,103.58
2019-04-06T00:33:28.029Z,113.83
2019-04-06T00:36:00.551Z,91.67
2019-04-06T00:38:33.871Z,103.85
2019-04-06T00:41:05.490Z,91.97
2019-04-06T00:43:36.986Z,96.87
2019-04-06T00:46:08.473Z,96.53
2019-04-06T00:48:39.956Z,91.97
2019-04-06T00:51:11.531Z,97.33
2019-04-06T00:53:43.040Z,87.00
2019-04-06T00:56:14.550Z,94.65
2019-04-06T00:58:47.234Z,112.95
2019-04-06T01:01:18.781Z,90.67
2019-04-06T01:03:50.337Z,93.15
2019-04-06T01:06:21.885Z,85.97
2019-04-06T01:08:53.317Z,112.97
2019-04-06T01:11:24.838Z,101.80
2019-04-06T01:13:57.362Z,117.95
2019-04-06T01:16:28.919Z,125.70
2019-04-06T01:19:00.459Z,123.58
2019-04-06T01:21:32.999Z,114.20
2019-04-06T01:24:04.706Z,120.57
2019-04-06T01:26:36.207Z,119.93
2019-04-06T01:29:07.715Z,112.77
2019-04-06T01:31:39.147Z,122.20
2019-04-06T01:34:10.648Z,129.10
2019-04-06T01:36:42.248Z,114.32
2019-04-06T01:39:13.960Z,114.25
2019-04-06T01:41:46.519Z,117.13
2019-04-06T01:44:19.536Z,126.70
2019-04-06T01:46:51.148Z,127.90
2019-04-06T01:49:24.183Z,130.63
2019-04-06T01:51:55.715Z,123.33
2019-04-06T01:54:27.366Z,131.07
2019-04-06T01:56:59.006Z,118.45
2019-04-06T01:59:31.716Z,113.17
2019-04-06T02:02:04.836Z,125.75
2019-04-06T02:04:36.364Z,133.32
2019-04-06T02:07:08.170Z,122.47
2019-04-06T02:09:39.692Z,118.22
2019-04-06T02:12:13.279Z,126.72
2019-04-06T02:14:44.851Z,127.40
2019-04-06T02:17:16.410Z,117.62
2019-04-06T02:19:48.918Z,125.10
2019-04-06T02:22:20.736Z,115.55
2019-04-06T02:24:52.237Z,123.33
2019-04-06T02:27:23.762Z,126.07
2019-04-06T02:30:10.342Z,120.87
2019-04-06T02:33:01.258Z,113.45
2019-04-06T02:35:43.786Z,117.35
2019-04-06T02:38:23.139Z,116.22
2019-04-06T02:41:05.662Z,113.77
2019-04-06T02:43:38.878Z,123.80
2019-04-06T02:46:10.461Z,116.73
2019-04-06T02:48:42.051Z,105.50
2019-04-06T02:51:13.578Z,95.62
2019-04-06T02:53:45.075Z,113.17
2019-04-06T02:56:16.613Z,97.90
2019-04-06T02:58:48.209Z,110.40
2019-04-06T03:01:19.960Z,93.85
2019-04-06T03:03:51.496Z,103.12
2019-04-06T03:06:23.130Z,95.95
2019-04-06T03:08:54.655Z,98.40
2019-04-06T03:11:26.157Z,103.62
2019-04-06T03:13:57.874Z,106.55
2019-04-06T03:16:29.483Z,104.85
2019-04-06T03:19:01.055Z,102.70
2019-04-06T03:21:32.691Z,113.85
2019-04-06T03:24:04.735Z,106.00
2019-04-06T03:26:36.481Z,111.28
2019-04-06T03:29:09.069Z,114.08
2019-04-06T03:31:44.887Z,125.82
2019-04-06T03:34:22.485Z,117.93
2019-04-06T03:36:55.581Z,114.60
2019-04-06T03:39:27.116Z,116.53
2019-04-06T03:42:01.898Z,127.87
2019-04-06T03:44:37.435Z,136.22
2019-04-06T03:47:08.891Z,137.83
2019-04-06T03:49:42.465Z,149.87
2019-04-06T03:52:14.045Z,144.25
2019-04-06T03:54:45.862Z,140.03
2019-04-06T03:57:17.662Z,136.18
2019-04-06T03:59:49.727Z,129.10
2019-04-06T04:02:28.367Z,132.57
2019-04-06T04:07:32.140Z,138.70
2019-04-06T04:10:07.315Z,127.87
2019-04-06T04:12:39.091Z,130.87
2019-04-06T04:15:10.770Z,140.80
2019-04-06T04:17:43.422Z,128.62
2019-04-06T04:20:17.023Z,126.82
2019-04-06T04:22:48.760Z,131.25
2019-04-06T04:25:22.537Z,132.10
2019-04-06T04:27:55.105Z,126.20
2019-04-06T04:30:33.113Z,125.18
2019-04-06T04:33:01.062Z,133.78
2019-04-06T04:35:33.807Z,140.37
2019-04-06T04:38:06.334Z,148.28
2019-04-06T04:40:37.857Z,134.43
2019-04-06T04:43:09.417Z,124.62
2019-04-06T04:45:41.519Z,120.67
2019-04-06T04:48:13.480Z,109.72
2019-04-06T04:50:45.041Z,123.85
2019-04-06T04:53:17.578Z,104.07
2019-04-06T04:55:50.166Z,112.12
2019-04-06T04:58:22.092Z,91.47
2019-04-06T05:00:55.147Z,93.80
2019-04-06T05:03:26.712Z,96.53
2019-04-06T05:05:58.213Z,100.00
2019-04-06T05:08:31.296Z,89.30
2019-04-06T05:11:03.131Z,83.65
2019-04-06T05:13:34.638Z,83.42
2019-04-06T05:16:10.912Z,80.40
2019-04-06T05:18:43.672Z,78.42
2019-04-06T05:21:16.682Z,76.77
2019-04-06T05:23:48.192Z,72.15
2019-04-06T05:26:19.721Z,71.15
2019-04-06T05:28:51.345Z,73.17
2019-04-06T05:31:22.919Z,78.12
2019-04-06T05:33:54.425Z,82.10
2019-04-06T05:36:25.935Z,73.33
2019-04-06T05:38:57.483Z,69.00
2019-04-06T05:41:29.019Z,75.15
2019-04-06T05:44:00.548Z,66.97
2019-04-06T05:46:32.056Z,64.55
2019-04-06T05:49:03.568Z,59.63
2019-04-06T05:51:35.097Z,66.42
2019-04-06T05:54:06.596Z,60.05
2019-04-06T05:56:38.211Z,59.05
2019-04-06T05:59:10.323Z,54.33
2019-04-06T06:01:42.617Z,50.00
2019-04-06T06:04:14.252Z,52.10
2019-04-06T06:06:45.763Z,52.78
2019-04-06T06:09:17.266Z,56.45
2019-04-06T06:11:48.777Z,54.40
2019-04-06T06:14:20.850Z,51.83
2019-04-06T06:16:52.445Z,50.67
2019-04-06T06:19:25.169Z,49.08
2019-04-06T06:21:56.680Z,54.30
2019-04-06T06:24:29.707Z,50.40
2019-04-06T06:27:01.267Z,58.48
2019-04-06T06:29:32.892Z,45.45
2019-04-06T06:32:04.894Z,65.75
2019-04-06T06:34:36.754Z,54.00
2019-04-06T06:37:10.621Z,55.00
2019-04-06T06:39:42.259Z,54.98
2019-04-06T06:42:14.086Z,44.98
2019-04-06T06:44:46.236Z,60.40
2019-04-06T06:47:17.801Z,74.90
2019-04-06T06:49:51.516Z,72.15
2019-04-06T06:52:23.044Z,91.07
2019-04-06T06:54:54.586Z,94.83
2019-04-06T06:57:26.133Z,63.87
2019-04-06T06:59:57.653Z,50.52
2019-04-06T07:02:30.256Z,52.38
2019-04-06T07:05:02.099Z,48.10
2019-04-06T07:07:33.618Z,45.92
2019-04-06T07:10:07.836Z,54.53
2019-04-06T07:12:40.400Z,45.33
2019-04-06T07:15:12.099Z,47.27
2019-04-06T07:17:43.701Z,46.88
2019-04-06T07:20:15.362Z,40.33
2019-04-06T07:22:47.886Z,43.15
2019-04-06T07:25:19.674Z,43.45
2019-04-06T07:27:51.179Z,46.33
2019-04-06T07:30:24.064Z,38.85
2019-04-06T07:32:55.855Z,36.20
2019-04-06T07:35:30.315Z,44.85
2019-04-06T07:38:03.531Z,45.95
2019-04-06T07:40:35.183Z,44.58
2019-04-06T07:43:06.707Z,46.95
2019-04-06T07:45:38.250Z,44.20
2019-04-06T07:48:09.746Z,41.80
2019-04-06T07:50:41.502Z,57.48
2019-04-06T07:53:13.208Z,36.10
2019-04-06T07:55:44.914Z,34.78
2019-04-06T07:58:16.745Z,36.53
2019-04-06T08:00:48.318Z,30.17
2019-04-06T08:03:20.012Z,25.40
2019-04-06T08:05:51.508Z,28.38
2019-04-06T08:08:23.079Z,23.12
2019-04-06T08:10:54.742Z,29.52
2019-04-06T08:13:26.316Z,18.20
2019-04-06T08:15:57.966Z,17.57
2019-04-06T08:18:29.699Z,19.98
2019-04-06T08:21:04.559Z,24.05
2019-04-06T08:23:36.234Z,18.45
2019-04-06T08:26:08.917Z,19.37
2019-04-06T08:28:41.441Z,19.23
2019-04-06T08:31:13.043Z,17.70
2019-04-06T08:33:44.619Z,19.30
2019-04-06T08:36:17.224Z,24.63
2019-04-06T08:38:48.766Z,28.75
2019-04-06T08:41:20.464Z,20.62
2019-04-06T08:43:52.042Z,22.20
2019-04-06T08:46:23.759Z,23.85
2019-04-06T08:48:55.235Z,22.98
2019-04-06T08:51:27.042Z,25.82
2019-04-06T08:53:59.591Z,21.48
2019-04-06T08:56:31.030Z,21.02
2019-04-06T08:59:11.615Z,18.75
2019-04-06T09:01:35.810Z,17.23
2019-04-06T09:04:07.400Z,18.77
2019-04-06T09:06:40.064Z,18.50
2019-04-06T09:09:11.612Z,15.88
2019-04-06T09:11:43.224Z,15.32
2019-04-06T09:14:14.776Z,18.32
2019-04-06T09:16:46.705Z,19.15
2019-04-06T09:19:18.328Z,15.63
2019-04-06T09:21:51.831Z,16.90
2019-04-06T09:24:23.552Z,17.32
2019-04-06T09:26:55.334Z,21.50
2019-04-06T09:29:28.187Z,16.90
2019-04-06T09:31:59.761Z,17.67
2019-04-06T09:34:32.197Z,15.88
2019-04-06T09:37:03.921Z,15.93
2019-04-06T09:39:41.206Z,13.35
2019-04-06T09:42:12.970Z,17.27
2019-04-06T09:44:55.211Z,14.20
2019-04-06T09:47:28.936Z,21.23
2019-04-06T09:50:08.291Z,16.57
2019-04-06T09:52:48.910Z,15.30
2019-04-06T09:55:34.167Z,15.98
2019-04-06T10:00:48.925Z,18.40
2019-04-06T10:03:40.875Z,20.05
2019-04-06T10:06:17.082Z,17.80
2019-04-06T10:09:06.340Z,16.77
2019-04-06T10:11:43.985Z,16.17
2019-04-06T10:14:33.536Z,16.17
2019-04-06T10:17:06.733Z,17.20
2019-04-06T10:19:43.284Z,16.90
2019-04-06T10:22:27.015Z,16.00
2019-04-06T10:25:18.994Z,16.60
2019-04-06T10:28:09.236Z,21.35
2019-04-06T10:31:19.103Z,22.27
2019-04-06T10:34:06.200Z,19.10
2019-04-06T10:37:04.905Z,21.20
2019-04-06T10:40:03.810Z,19.85
2019-04-06T10:43:11.389Z,20.20
2019-04-06T10:46:36.058Z,22.35
2019-04-06T10:52:54.703Z,17.60
2019-04-06T10:55:51.021Z,19.42
2019-04-06T10:58:27.877Z,18.52
2019-04-06T11:01:08.061Z,16.10
2019-04-06T11:03:42.341Z,18.75
2019-04-06T11:06:20.141Z,20.43
2019-04-06T11:09:07.041Z,17.62
2019-04-06T11:11:43.465Z,18.15
2019-04-06T11:14:31.720Z,20.02
2019-04-06T11:17:21.859Z,21.73
2019-04-06T11:20:05.601Z,18.32
2019-04-06T11:22:57.130Z,19.67
2019-04-06T11:25:51.836Z,19.57
2019-04-06T11:28:48.867Z,21.07
2019-04-06T11:31:43.280Z,20.40
2019-04-06T11:34:39.887Z,18.27
2019-04-06T11:37:33.753Z,16.65
2019-04-06T11:40:16.266Z,18.20
2019-04-06T11:43:04.014Z,17.20
2019-04-06T11:46:06.430Z,17.23
2019-04-06T11:48:46.188Z,17.90
2019-04-06T11:51:34.450Z,19.70
2019-04-06T11:54:18.902Z,21.17
2019-04-06T11:57:15.408Z,69.77
2019-04-06T12:00:03.681Z,20.95
2019-04-06T12:02:46.294Z,21.17
2019-04-06T12:05:31.826Z,16.62
2019-04-06T12:08:14.947Z,17.17
2019-04-06T12:10:48.448Z,27.27
2019-04-06T12:13:27.969Z,20.27
2019-04-06T12:16:10.380Z,20.77
2019-04-06T12:21:21.856Z,18.00
2019-04-06T12:24:03.822Z,19.32
2019-04-06T12:26:39.982Z,20.25
2019-04-06T12:29:30.927Z,19.55
2019-04-06T12:32:04.014Z,18.37
2019-04-06T12:34:37.223Z,16.77
2019-04-06T12:37:19.486Z,14.95
2019-04-06T12:40:04.637Z,16.67
2019-04-06T12:42:49.661Z,17.27
2019-04-06T12:45:40.756Z,17.57
2019-04-06T12:48:32.172Z,18.85
2019-04-06T12:51:19.454Z,19.37
2019-04-06T12:53:55.361Z,18.10
2019-04-06T12:56:37.769Z,17.50
2019-04-06T12:59:27.076Z,16.62
2019-04-06T13:02:00.270Z,17.57
2019-04-06T13:04:39.702Z,24.45
2019-04-06T13:07:26.877Z,17.35
2019-04-06T13:10:03.139Z,19.35
2019-04-06T13:12:43.470Z,17.25
2019-04-06T13:15:22.604Z,16.12
2019-04-06T13:18:14.155Z,21.60
2019-04-06T13:21:03.564Z,18.12
2019-04-06T13:23:53.051Z,19.07
2019-04-06T13:26:45.380Z,16.07
2019-04-06T13:29:28.222Z,18.82
2019-04-06T13:32:16.744Z,17.25
2019-04-06T13:34:54.679Z,15.90
2019-04-06T13:37:33.916Z,15.93
2019-04-06T13:40:27.376Z,17.77
2019-04-06T13:43:09.612Z,20.30
2019-04-06T13:45:48.541Z,18.55
2019-04-06T13:48:25.545Z,17.50
2019-04-06T13:51:15.175Z,18.02
2019-04-06T13:53:58.270Z,20.40
2019-04-06T13:56:40.778Z,16.32
2019-04-06T13:59:22.978Z,15.50
2019-04-06T14:02:13.252Z,19.37
2019-04-06T14:04:58.589Z,14.47
2019-04-06T14:10:19.013Z,18.02
2019-04-06T14:13:01.248Z,16.50
2019-04-06T14:15:49.679Z,18.92
2019-04-06T14:18:40.888Z,17.85
2019-04-06T14:21:23.143Z,18.07
2019-04-06T14:23:59.260Z,16.50
2019-04-06T14:26:47.503Z,14.75
2019-04-06T14:29:20.594Z,16.12
2019-04-06T14:31:57.071Z,19.27
2019-04-06T14:34:36.562Z,24.20
2019-04-06T14:37:09.734Z,17.70
2019-04-06T14:39:51.779Z,19.02
2019-04-06T14:42:27.737Z,17.75
2019-04-06T14:45:18.861Z,19.07
2019-04-06T14:47:55.808Z,18.00
2019-04-06T14:50:35.201Z,16.17
2019-04-06T14:53:24.945Z,16.35
2019-04-06T14:56:01.040Z,21.33
2019-04-06T14:58:52.583Z,19.42
2019-04-06T15:01:41.183Z,17.15
2019-04-06T15:04:19.546Z,15.28
2019-04-06T15:07:09.422Z,17.17
2019-04-06T15:09:36.846Z,17.10
2019-04-06T15:12:10.368Z,19.27
2019-04-06T15:14:49.414Z,21.55
2019-04-06T15:17:28.947Z,28.92
2019-04-06T15:20:11.315Z,28.38
2019-04-06T15:22:50.447Z,20.77
2019-04-06T15:25:28.893Z,21.23
2019-04-06T15:28:08.207Z,23.12
2019-04-06T15:30:44.060Z,23.77
2019-04-06T15:33:20.140Z,18.23
2019-04-06T15:35:56.298Z,20.82
2019-04-06T15:38:36.543Z,18.50
2019-04-06T15:41:21.666Z,18.12
2019-04-06T15:43:54.794Z,17.82
2019-04-06T15:46:44.643Z,17.77
2019-04-06T15:49:28.350Z,21.17
2019-04-06T15:52:10.154Z,22.67
2019-04-06T15:54:45.296Z,23.27
2019-04-06T15:57:18.462Z,23.05
2019-04-06T15:59:54.625Z,29.42
2019-04-06T16:02:39.998Z,29.60
2019-04-06T16:08:03.326Z,25.05
2019-04-06T16:10:53.060Z,22.85
2019-04-06T16:13:42.581Z,24.57
2019-04-06T16:16:21.427Z,25.77
2019-04-06T16:18:57.553Z,27.30
2019-04-06T16:21:46.645Z,28.17
2019-04-06T16:24:28.730Z,27.07
2019-04-06T16:27:01.893Z,33.92
2019-04-06T16:29:36.047Z,34.90
2019-04-06T16:32:12.170Z,29.48
2019-04-06T16:34:44.923Z,36.50
2019-04-06T16:37:18.085Z,33.30
2019-04-06T16:39:51.231Z,33.10
2019-04-06T16:42:30.611Z,29.20
2019-04-06T16:45:22.873Z,39.48
2019-04-06T16:47:56.973Z,35.78
2019-04-06T16:50:32.729Z,35.55
2019-04-06T16:53:12.495Z,28.67
2019-04-06T16:55:45.806Z,25.68
2019-04-06T16:58:35.528Z,25.23
2019-04-06T17:01:21.034Z,28.42
2019-04-06T17:03:55.639Z,27.27
2019-04-06T17:06:29.542Z,29.30
2019-04-06T17:09:15.745Z,28.47
2019-04-06T17:11:49.890Z,25.27
2019-04-06T17:14:25.992Z,32.08
2019-04-06T17:17:01.780Z,28.52
2019-04-06T17:19:44.106Z,32.15
2019-04-06T17:22:29.345Z,33.85
2019-04-06T17:25:05.433Z,37.58
2019-04-06T17:27:50.577Z,36.13
2019-04-06T17:30:26.975Z,38.95
2019-04-06T17:33:00.428Z,36.53
2019-04-06T17:35:50.516Z,34.83
2019-04-06T17:38:27.029Z,42.43
2019-04-06T17:41:06.478Z,36.17
2019-04-06T17:43:43.027Z,36.28
2019-04-06T17:46:22.467Z,39.10
2019-04-06T17:49:01.334Z,39.45
2019-04-06T17:51:36.678Z,37.55
2019-04-06T17:54:15.698Z,35.78
2019-04-06T17:56:50.315Z,37.25
2019-04-06T17:59:32.480Z,36.65
2019-04-06T18:02:08.986Z,38.45
2019-04-06T18:04:59.076Z,37.45
2019-04-06T18:07:41.542Z,37.78
2019-04-06T18:10:14.662Z,36.05
2019-04-06T18:12:47.744Z,38.00
2019-04-06T18:15:22.840Z,42.83
2019-04-06T18:17:54.416Z,35.45
2019-04-06T18:20:26.104Z,44.55
2019-04-06T18:22:58.152Z,36.45
2019-04-06T18:25:29.748Z,42.85
2019-04-06T18:28:01.587Z,38.60
2019-04-06T18:30:33.242Z,38.88
2019-04-06T18:33:09.437Z,38.98
2019-04-06T18:35:41.051Z,41.00
2019-04-06T18:38:16.848Z,46.45
2019-04-06T18:40:48.361Z,51.83
2019-04-06T18:43:20.858Z,60.33
2019-04-06T18:45:52.350Z,60.40
2019-04-06T18:48:23.888Z,58.10
2019-04-06T18:50:55.455Z,49.13
2019-04-06T18:53:28.019Z,42.50
2019-04-06T18:56:00.894Z,42.03
2019-04-06T18:58:32.493Z,40.70
2019-04-06T19:01:04.594Z,40.98
2019-04-06T19:03:36.795Z,40.73
2019-04-06T19:06:09.521Z,39.42
2019-04-06T19:08:41.024Z,36.95
2019-04-06T19:11:12.668Z,40.08
2019-04-06T19:13:44.365Z,50.67
2019-04-06T19:16:18.015Z,38.88
2019-04-06T19:18:50.086Z,39.58
2019-04-06T19:21:23.236Z,37.67
2019-04-06T19:23:54.997Z,43.15
2019-04-06T19:26:26.567Z,35.03
2019-04-06T19:28:58.187Z,38.15
2019-04-06T19:31:30.710Z,35.45
2019-04-06T19:34:02.333Z,40.90
2019-04-06T19:36:34.061Z,38.38
2019-04-06T19:39:08.637Z,39.45
2019-04-06T19:41:40.687Z,40.63
2019-04-06T19:44:13.265Z,38.13
2019-04-06T19:46:46.053Z,38.73
2019-04-06T19:49:17.869Z,54.00
2019-04-06T19:51:51.533Z,36.23
2019-04-06T19:54:23.214Z,32.08
2019-04-06T19:56:55.159Z,39.92
2019-04-06T19:59:26.773Z,31.82
2019-04-06T20:01:58.691Z,42.33
2019-04-06T20:04:30.808Z,35.15
2019-04-06T20:07:03.683Z,34.20
2019-04-06T20:09:36.592Z,32.53
2019-04-06T20:12:08.167Z,34.73
2019-04-06T20:14:39.724Z,31.35
2019-04-06T20:17:11.228Z,32.30
2019-04-06T20:19:42.892Z,35.58
2019-04-06T20:22:14.875Z,31.02
2019-04-06T20:24:47.619Z,37.20
2019-04-06T20:27:21.272Z,30.85
2019-04-06T20:29:53.504Z,33.55
2019-04-06T20:32:25.601Z,35.68
2019-04-06T20:34:57.402Z,35.10
2019-04-06T20:37:32.382Z,32.15
2019-04-06T20:40:05.284Z,35.63
2019-04-06T20:42:36.950Z,33.73
2019-04-06T20:45:09.221Z,30.17
2019-04-06T20:47:40.888Z,33.63
2019-04-06T20:50:12.385Z,33.88
2019-04-06T20:52:43.983Z,34.80
2019-04-06T20:55:15.495Z,34.38
2019-04-06T20:57:48.326Z,32.65
2019-04-06T21:00:20.797Z,35.30
2019-04-06T21:02:52.250Z,37.13
2019-04-06T21:05:24.230Z,31.17
2019-04-06T21:07:56.413Z,34.43
2019-04-06T21:10:28.242Z,40.33
2019-04-06T21:12:59.907Z,40.55
2019-04-06T21:15:31.924Z,64.27
2019-04-06T21:18:03.458Z,67.42
2019-04-06T21:20:36.868Z,81.75
2019-04-06T21:23:09.645Z,73.12
2019-04-06T21:25:41.748Z,68.72
2019-04-06T21:28:14.488Z,81.82
2019-04-06T21:30:47.873Z,66.30
2019-04-06T21:33:20.095Z,57.62
2019-04-06T21:35:51.592Z,48.08
2019-04-06T21:38:23.107Z,51.02
2019-04-06T21:40:54.673Z,52.73
2019-04-06T21:43:27.790Z,50.92
2019-04-06T21:45:59.292Z,43.73
2019-04-06T21:48:31.318Z,46.28
2019-04-06T21:51:03.936Z,42.45
2019-04-06T21:53:35.872Z,41.35
2019-04-06T21:56:08.294Z,43.98
2019-04-06T21:58:40.444Z,47.98
2019-04-06T22:01:13.970Z,39.98
2019-04-06T22:06:17.439Z,53.48
2019-04-06T22:08:48.999Z,42.53
2019-04-06T22:11:20.523Z,42.05
2019-04-06T22:13:52.195Z,33.98
2019-04-06T22:16:23.698Z,36.88
2019-04-06T22:18:55.251Z,37.23
2019-04-06T22:21:27.115Z,38.95
2019-04-06T22:23:59.118Z,34.95
2019-04-06T22:26:30.720Z,42.45
2019-04-06T22:29:02.717Z,34.03
2019-04-06T22:31:34.347Z,31.68
2019-04-06T22:34:05.875Z,34.20
2019-04-06T22:36:37.424Z,32.03
2019-04-06T22:39:10.067Z,33.58
2019-04-06T22:41:42.048Z,34.35
2019-04-06T22:44:13.686Z,63.52
2019-04-06T22:46:45.143Z,41.10
2019-04-06T22:49:16.694Z,41.48
2019-04-06T22:51:48.337Z,39.78
2019-04-06T22:54:19.862Z,40.63
2019-04-06T22:56:52.043Z,38.98
2019-04-06T22:59:23.651Z,33.08
2019-04-06T23:01:55.146Z,37.03
2019-04-06T23:04:28.714Z,37.73
2019-04-06T23:07:02.071Z,34.58
2019-04-06T23:09:34.603Z,36.03
2019-04-06T23:12:06.432Z,34.90
2019-04-06T23:14:38.338Z,39.55
2019-04-06T23:17:10.246Z,41.88
2019-04-06T23:19:42.017Z,38.00
2019-04-06T23:22:14.136Z,48.10
2019-04-06T23:24:45.871Z,51.40
2019-04-06T23:27:17.377Z,46.50
2019-04-06T23:29:48.898Z,62.48
2019-04-06T23:32:20.536Z,57.83
2019-04-06T23:34:59.458Z,47.75
2019-04-06T23:37:26.267Z,47.98
2019-04-06T23:39:58.448Z,44.88
2019-04-06T23:42:31.899Z,46.42
2019-04-06T23:45:03.582Z,43.95
2019-04-06T23:47:35.187Z,48.70
2019-04-06T23:50:07.650Z,45.80
2019-04-06T23:52:39.875Z,47.40
2019-04-06T23:55:11.944Z,43.02
2019-04-06T23:57:44.567Z,44.50
